createdAt,value
2023-04-01T00:00:33.872Z,14.10
2023-04-01T00:01:35.938Z,14.10
2023-04-01T00:02:39.145Z,14.10
2023-04-01T00:03:42.033Z,14.10
2023-04-01T00:04:45.566Z,14.10
2023-04-01T00:05:48.711Z,14.10
2023-04-01T00:06:52.645Z,14.10
2023-04-01T00:07:56.189Z,14.00
2023-04-01T00:08:59.264Z,14.00
2023-04-01T00:10:01.612Z,14.00
2023-04-01T00:11:04.783Z,14.00
2023-04-01T00:12:07.024Z,14.00
2023-04-01T00:13:10.455Z,14.10
2023-04-01T00:14:12.781Z,14.10
2023-04-01T00:15:16.586Z,14.10
2023-04-01T00:16:22.279Z,14.10
2023-04-01T00:17:26.005Z,14.10
2023-04-01T00:18:28.672Z,14.10
2023-04-01T00:19:32.879Z,14.10
2023-04-01T00:20:35.370Z,14.10
2023-04-01T00:21:38.579Z,14.20
2023-04-01T00:22:40.978Z,14.10
2023-04-01T00:23:45.530Z,14.10
2023-04-01T00:24:47.690Z,14.20
2023-04-01T00:25:51.649Z,14.20
2023-04-01T00:26:53.722Z,14.20
2023-04-01T00:27:56.836Z,14.20
2023-04-01T00:28:59.911Z,14.10
2023-04-01T00:30:03.244Z,14.10
2023-04-01T00:31:07.264Z,14.10
2023-04-01T00:32:10.634Z,14.00
2023-04-01T00:33:12.913Z,14.00
2023-04-01T00:34:16.216Z,14.10
2023-04-01T00:35:18.497Z,14.10
2023-04-01T00:36:24.169Z,14.10
2023-04-01T00:37:27.485Z,14.10
2023-04-01T00:38:30.614Z,14.00
2023-04-01T00:39:35.839Z,14.00
2023-04-01T00:40:41.296Z,14.00
2023-04-01T00:41:46.222Z,14.10
2023-04-01T00:42:49.272Z,14.10
2023-04-01T00:43:52.603Z,14.00
2023-04-01T00:44:57.351Z,14.00
2023-04-01T00:45:59.442Z,14.00
2023-04-01T00:47:03.561Z,14.00
2023-04-01T00:48:11.402Z,14.00
2023-04-01T00:49:16.010Z,13.90
2023-04-01T00:50:18.172Z,14.00
2023-04-01T00:51:26.014Z,14.00
2023-04-01T00:52:28.632Z,14.00
2023-04-01T00:53:34.319Z,14.00
2023-04-01T00:54:43.128Z,14.00
2023-04-01T00:55:52.219Z,14.00
2023-04-01T00:57:00.446Z,14.00
2023-04-01T00:58:10.580Z,14.00
2023-04-01T00:59:19.650Z,14.00
2023-04-01T01:00:23.055Z,14.00
2023-04-01T01:01:26.929Z,14.00
2023-04-01T01:02:30.334Z,14.10
2023-04-01T01:03:32.546Z,14.10
2023-04-01T01:04:37.376Z,14.00
2023-04-01T01:05:55.731Z,14.00
2023-04-01T01:07:12.439Z,14.00
2023-04-01T01:08:26.372Z,14.00
2023-04-01T01:09:40.707Z,14.00
2023-04-01T01:10:49.640Z,14.00
2023-04-01T01:12:00.740Z,14.00
2023-04-01T01:13:12.517Z,14.10
2023-04-01T01:14:33.535Z,14.00
2023-04-01T01:15:45.220Z,14.00
2023-04-01T01:16:57.657Z,14.00
2023-04-01T01:18:08.392Z,14.00
2023-04-01T01:19:27.429Z,14.00
2023-04-01T01:20:59.312Z,14.00
2023-04-01T01:22:27.818Z,14.00
2023-04-01T01:24:06.609Z,14.00
2023-04-01T01:25:31.770Z,14.00
2023-04-01T01:27:01.559Z,14.00
2023-04-01T01:28:26.986Z,14.00
2023-04-01T01:30:07.996Z,14.00
2023-04-01T01:31:21.029Z,14.00
2023-04-01T01:32:46.781Z,14.00
2023-04-01T01:34:16.478Z,14.00
2023-04-01T01:35:27.399Z,14.00
2023-04-01T01:36:35.629Z,14.00
2023-04-01T01:37:42.115Z,14.00
2023-04-01T01:38:49.731Z,14.00
2023-04-01T01:39:56.373Z,14.00
2023-04-01T01:41:01.445Z,14.00
2023-04-01T01:42:08.761Z,14.00
2023-04-01T01:43:16.940Z,14.00
2023-04-01T01:44:22.528Z,14.00
2023-04-01T01:45:28.707Z,14.00
2023-04-01T01:46:32.561Z,14.00
2023-04-01T01:47:38.350Z,14.00
2023-04-01T01:48:44.521Z,14.00
2023-04-01T01:49:48.352Z,14.00
2023-04-01T01:50:53.056Z,14.00
2023-04-01T01:51:56.383Z,14.00
2023-04-01T01:53:03.842Z,14.00
2023-04-01T01:54:06.989Z,14.00
2023-04-01T01:55:27.177Z,14.00
2023-04-01T01:56:32.762Z,13.90
2023-04-01T01:57:38.925Z,14.00
2023-04-01T01:58:46.866Z,14.00
2023-04-01T01:59:52.048Z,14.00
2023-04-01T02:01:00.922Z,14.00
2023-04-01T02:02:08.844Z,13.90
2023-04-01T02:03:15.624Z,13.90
2023-04-01T02:04:20.644Z,13.90
2023-04-01T02:05:27.563Z,13.90
2023-04-01T02:06:38.318Z,13.90
2023-04-01T02:07:46.474Z,13.90
2023-04-01T02:08:53.808Z,13.90
2023-04-01T02:09:57.397Z,13.90
2023-04-01T02:11:03.048Z,13.90
2023-04-01T02:12:09.941Z,13.80
2023-04-01T02:13:22.920Z,13.80
2023-04-01T02:14:30.658Z,13.80
2023-04-01T02:15:43.090Z,13.90
2023-04-01T02:16:52.186Z,13.90
2023-04-01T02:17:57.913Z,13.90
2023-04-01T02:19:04.223Z,13.90
2023-04-01T02:20:12.421Z,13.90
2023-04-01T02:21:19.392Z,13.90
2023-04-01T02:22:26.711Z,14.00
2023-04-01T02:23:31.028Z,13.90
2023-04-01T02:24:38.867Z,13.90
2023-04-01T02:25:45.441Z,13.90
2023-04-01T02:26:48.352Z,13.90
2023-04-01T02:27:52.133Z,13.90
2023-04-01T02:28:56.271Z,13.90
2023-04-01T02:30:00.089Z,13.90
2023-04-01T02:31:04.680Z,13.90
2023-04-01T02:32:09.500Z,13.90
2023-04-01T02:33:11.926Z,13.90
2023-04-01T02:34:16.413Z,13.90
2023-04-01T02:35:19.731Z,13.90
2023-04-01T02:36:23.389Z,13.90
2023-04-01T02:37:27.123Z,13.90
2023-04-01T02:38:30.202Z,13.90
2023-04-01T02:39:32.726Z,13.90
2023-04-01T02:40:48.422Z,13.90
2023-04-01T02:41:50.548Z,13.80
2023-04-01T02:42:53.669Z,13.80
2023-04-01T02:43:58.335Z,13.80
2023-04-01T02:45:00.692Z,13.80
2023-04-01T02:46:03.846Z,13.80
2023-04-01T02:47:06.178Z,13.70
2023-04-01T02:48:09.304Z,13.80
2023-04-01T02:49:11.500Z,13.80
2023-04-01T02:50:14.655Z,13.80
2023-04-01T02:51:18.323Z,13.80
2023-04-01T02:52:21.609Z,13.80
2023-04-01T02:53:25.404Z,13.80
2023-04-01T02:54:28.500Z,13.70
2023-04-01T02:55:31.531Z,13.70
2023-04-01T02:56:34.941Z,13.70
2023-04-01T02:57:37.059Z,13.70
2023-04-01T02:58:40.389Z,13.60
2023-04-01T02:59:42.581Z,13.70
2023-04-01T03:00:46.013Z,13.60
2023-04-01T03:01:48.119Z,13.60
2023-04-01T03:02:51.304Z,13.70
2023-04-01T03:03:53.508Z,13.70
2023-04-01T03:04:56.596Z,13.60
2023-04-01T03:06:01.085Z,13.70
2023-04-01T03:07:04.333Z,13.60
2023-04-01T03:08:07.349Z,13.60
2023-04-01T03:09:11.802Z,13.60
2023-04-01T03:10:14.239Z,13.60
2023-04-01T03:11:17.335Z,13.60
2023-04-01T03:12:19.466Z,13.60
2023-04-01T03:13:22.525Z,13.60
2023-04-01T03:14:24.666Z,13.60
2023-04-01T03:15:27.799Z,13.60
2023-04-01T03:16:29.999Z,13.60
2023-04-01T03:17:33.345Z,13.60
2023-04-01T03:18:35.592Z,13.60
2023-04-01T03:19:38.690Z,13.60
2023-04-01T03:20:40.939Z,13.60
2023-04-01T03:21:44.046Z,13.60
2023-04-01T03:22:46.913Z,13.60
2023-04-01T03:23:50.148Z,13.60
2023-04-01T03:24:53.603Z,13.60
2023-04-01T03:25:59.768Z,13.60
2023-04-01T03:27:01.894Z,13.60
2023-04-01T03:28:05.340Z,13.60
2023-04-01T03:29:07.476Z,13.70
2023-04-01T03:30:11.726Z,13.70
2023-04-01T03:31:14.366Z,13.70
2023-04-01T03:32:17.531Z,13.70
2023-04-01T03:33:19.618Z,13.70
2023-04-01T03:34:22.774Z,13.70
2023-04-01T03:35:25.224Z,13.70
2023-04-01T03:36:28.376Z,13.60
2023-04-01T03:37:30.660Z,13.60
2023-04-01T03:38:33.910Z,13.70
2023-04-01T03:39:36.324Z,13.70
2023-04-01T03:40:44.564Z,13.60
2023-04-01T03:41:47.753Z,13.70
2023-04-01T03:42:51.485Z,13.70
2023-04-01T03:43:55.096Z,13.70
2023-04-01T03:44:58.218Z,13.70
2023-04-01T03:46:00.451Z,13.60
2023-04-01T03:47:04.025Z,13.60
2023-04-01T03:48:06.370Z,13.60
2023-04-01T03:49:12.511Z,13.60
2023-04-01T03:50:14.776Z,13.60
2023-04-01T03:51:17.877Z,13.60
2023-04-01T03:52:20.044Z,13.60
2023-04-01T03:53:23.148Z,13.60
2023-04-01T03:54:25.442Z,13.50
2023-04-01T03:55:28.617Z,13.50
2023-04-01T03:56:32.231Z,13.50
2023-04-01T03:57:35.785Z,13.60
2023-04-01T03:58:39.780Z,13.60
2023-04-01T03:59:42.978Z,13.60
2023-04-01T04:00:45.460Z,13.50
2023-04-01T04:01:49.457Z,13.60
2023-04-01T04:02:51.637Z,13.50
2023-04-01T04:03:55.460Z,13.50
2023-04-01T04:04:57.786Z,13.50
2023-04-01T04:06:00.960Z,13.50
2023-04-01T04:07:03.283Z,13.50
2023-04-01T04:08:06.844Z,13.40
2023-04-01T04:09:09.188Z,13.40
2023-04-01T04:10:12.680Z,13.40
2023-04-01T04:11:15.019Z,13.40
2023-04-01T04:12:19.575Z,13.50
2023-04-01T04:13:27.062Z,13.40
2023-04-01T04:14:30.301Z,13.40
2023-04-01T04:15:32.670Z,13.40
2023-04-01T04:16:38.672Z,13.50
2023-04-01T04:17:41.146Z,13.50
2023-04-01T04:18:44.888Z,13.50
2023-04-01T04:19:48.166Z,13.50
2023-04-01T04:20:52.440Z,13.40
2023-04-01T04:21:55.646Z,13.40
2023-04-01T04:22:57.895Z,13.40
2023-04-01T04:24:01.081Z,13.50
2023-04-01T04:25:03.570Z,13.50
2023-04-01T04:26:09.161Z,13.50
2023-04-01T04:27:11.273Z,13.50
2023-04-01T04:28:15.849Z,13.50
2023-04-01T04:29:18.211Z,13.40
2023-04-01T04:30:21.524Z,13.50
2023-04-01T04:31:26.448Z,13.50
2023-04-01T04:32:29.415Z,13.50
2023-04-01T04:33:33.443Z,13.50
2023-04-01T04:34:35.650Z,13.50
2023-04-01T04:35:38.825Z,13.40
2023-04-01T04:36:42.229Z,13.50
2023-04-01T04:37:47.373Z,13.50
2023-04-01T04:38:51.109Z,13.50
2023-04-01T04:39:53.410Z,13.50
2023-04-01T04:40:56.610Z,13.50
2023-04-01T04:41:58.803Z,13.50
2023-04-01T04:43:02.063Z,13.50
2023-04-01T04:44:06.369Z,13.50
2023-04-01T04:45:10.051Z,13.60
2023-04-01T04:46:12.540Z,13.60
2023-04-01T04:47:17.075Z,13.50
2023-04-01T04:48:19.922Z,13.60
2023-04-01T04:49:23.949Z,13.60
2023-04-01T04:50:26.495Z,13.50
2023-04-01T04:51:29.776Z,13.60
2023-04-01T04:52:32.028Z,13.60
2023-04-01T04:53:35.274Z,13.50
2023-04-01T04:54:37.648Z,13.40
2023-04-01T04:55:45.985Z,13.50
2023-04-01T04:56:48.226Z,13.50
2023-04-01T04:57:51.591Z,13.50
2023-04-01T04:58:54.120Z,13.50
2023-04-01T04:59:58.700Z,13.50
2023-04-01T05:01:06.347Z,13.50
2023-04-01T05:02:09.846Z,13.50
2023-04-01T05:03:12.425Z,13.50
2023-04-01T05:04:15.695Z,13.50
2023-04-01T05:05:18.034Z,13.50
2023-04-01T05:06:23.631Z,13.50
2023-04-01T05:07:26.008Z,13.50
2023-04-01T05:08:29.187Z,13.50
2023-04-01T05:09:32.211Z,13.50
2023-04-01T05:10:35.486Z,13.50
2023-04-01T05:11:37.722Z,13.50
2023-04-01T05:12:41.115Z,13.50
2023-04-01T05:13:44.336Z,13.50
2023-04-01T05:14:47.502Z,13.40
2023-04-01T05:15:51.336Z,13.40
2023-04-01T05:16:55.476Z,13.40
2023-04-01T05:17:57.934Z,13.40
2023-04-01T05:19:01.150Z,13.40
2023-04-01T05:20:03.774Z,13.50
2023-04-01T05:21:09.164Z,13.50
2023-04-01T05:22:11.398Z,13.40
2023-04-01T05:23:14.623Z,13.30
2023-04-01T05:24:16.813Z,13.40
2023-04-01T05:25:19.991Z,13.40
2023-04-01T05:26:22.163Z,13.40
2023-04-01T05:27:25.645Z,13.40
2023-04-01T05:28:27.801Z,13.40
2023-04-01T05:29:30.993Z,13.40
2023-04-01T05:30:33.144Z,13.30
2023-04-01T05:31:37.728Z,13.30
2023-04-01T05:32:39.929Z,13.30
2023-04-01T05:33:43.230Z,13.30
2023-04-01T05:34:45.549Z,13.30
2023-04-01T05:35:48.794Z,13.30
2023-04-01T05:36:51.427Z,13.40
2023-04-01T05:37:58.635Z,13.40
2023-04-01T05:39:02.431Z,13.40
2023-04-01T05:40:12.527Z,13.40
2023-04-01T05:41:20.447Z,13.40
2023-04-01T05:42:28.336Z,13.40
2023-04-01T05:43:31.347Z,13.40
2023-04-01T05:44:34.569Z,13.40
2023-04-01T05:45:36.744Z,13.40
2023-04-01T05:46:41.359Z,13.40
2023-04-01T05:47:46.349Z,13.40
2023-04-01T05:48:49.737Z,13.40
2023-04-01T05:49:51.966Z,13.50
2023-04-01T05:50:55.342Z,13.40
2023-04-01T05:51:57.995Z,13.50
2023-04-01T05:53:01.209Z,13.50
2023-04-01T05:54:04.931Z,13.50
2023-04-01T05:55:08.951Z,13.40
2023-04-01T05:56:12.317Z,13.40
2023-04-01T05:57:14.578Z,13.50
2023-04-01T05:58:17.887Z,13.50
2023-04-01T05:59:20.236Z,13.50
2023-04-01T06:00:23.481Z,13.50
2023-04-01T06:01:25.841Z,13.50
2023-04-01T06:02:30.511Z,13.50
2023-04-01T06:03:32.992Z,13.60
2023-04-01T06:04:41.218Z,13.60
2023-04-01T06:05:44.871Z,13.60
2023-04-01T06:06:48.129Z,13.60
2023-04-01T06:07:56.235Z,13.60
2023-04-01T06:09:03.994Z,13.60
2023-04-01T06:10:13.806Z,13.60
2023-04-01T06:11:30.995Z,13.60
2023-04-01T06:12:49.995Z,13.60
2023-04-01T06:14:12.345Z,13.60
2023-04-01T06:15:33.003Z,13.60
2023-04-01T06:16:48.270Z,13.60
2023-04-01T06:18:22.061Z,13.50
2023-04-01T06:19:36.984Z,13.60
2023-04-01T06:20:52.221Z,13.60
2023-04-01T06:22:44.167Z,13.60
2023-04-01T06:24:02.181Z,13.60
2023-04-01T06:25:33.506Z,13.70
2023-04-01T06:26:43.321Z,13.60
2023-04-01T06:28:02.619Z,13.70
2023-04-01T06:29:24.652Z,13.70
2023-04-01T06:30:40.437Z,13.60
2023-04-01T06:32:07.924Z,13.60
2023-04-01T06:33:43.624Z,13.60
2023-04-01T06:35:18.433Z,13.60
2023-04-01T06:36:55.732Z,13.70
2023-04-01T06:38:27.540Z,13.70
2023-04-01T06:39:56.718Z,13.70
2023-04-01T06:41:41.029Z,13.70
2023-04-01T06:42:58.937Z,13.70
2023-04-01T06:44:16.982Z,13.80
2023-04-01T06:45:34.309Z,13.80
2023-04-01T06:46:48.998Z,13.80
2023-04-01T06:48:07.060Z,13.80
2023-04-01T06:49:39.707Z,13.80
2023-04-01T06:50:50.790Z,13.90
2023-04-01T06:52:06.330Z,13.90
2023-04-01T06:53:18.682Z,13.90
2023-04-01T06:54:27.005Z,13.90
2023-04-01T06:55:38.943Z,14.00
2023-04-01T06:56:47.452Z,14.00
2023-04-01T06:57:55.016Z,14.00
2023-04-01T06:59:03.392Z,14.00
2023-04-01T07:00:17.370Z,14.00
2023-04-01T07:01:26.214Z,14.00
2023-04-01T07:02:40.790Z,14.00
2023-04-01T07:03:50.673Z,14.00
2023-04-01T07:05:00.323Z,14.10
2023-04-01T07:06:06.326Z,14.10
2023-04-01T07:07:22.080Z,14.10
2023-04-01T07:08:29.760Z,14.10
2023-04-01T07:09:37.585Z,14.10
2023-04-01T07:10:48.948Z,14.10
2023-04-01T07:11:55.922Z,14.10
2023-04-01T07:13:05.962Z,14.10
2023-04-01T07:14:18.984Z,14.10
2023-04-01T07:15:27.308Z,14.20
2023-04-01T07:16:36.377Z,14.20
2023-04-01T07:17:42.488Z,14.20
2023-04-01T07:18:50.847Z,14.20
2023-04-01T07:20:02.006Z,14.30
2023-04-01T07:21:06.744Z,14.30
2023-04-01T07:22:28.046Z,14.40
2023-04-01T07:23:39.120Z,14.40
2023-04-01T07:24:49.128Z,14.50
2023-04-01T07:26:00.707Z,14.60
2023-04-01T07:27:03.457Z,14.60
2023-04-01T07:28:24.262Z,14.60
2023-04-01T07:29:29.985Z,14.60
2023-04-01T07:30:54.008Z,14.70
2023-04-01T07:32:24.408Z,14.70
2023-04-01T07:33:39.935Z,14.70
2023-04-01T07:35:01.846Z,14.80
2023-04-01T07:36:12.037Z,14.80
2023-04-01T07:37:24.377Z,14.80
2023-04-01T07:38:41.416Z,14.90
2023-04-01T07:39:56.654Z,14.90
2023-04-01T07:41:13.828Z,14.90
2023-04-01T07:42:29.266Z,14.90
2023-04-01T07:43:52.744Z,14.90
2023-04-01T07:45:09.503Z,15.00
2023-04-01T07:46:24.752Z,15.00
2023-04-01T07:47:52.622Z,15.00
2023-04-01T07:49:01.858Z,15.10
2023-04-01T07:50:21.562Z,15.20
2023-04-01T07:51:33.960Z,15.20
2023-04-01T07:52:46.973Z,15.30
2023-04-01T07:54:02.973Z,15.30
2023-04-01T07:55:16.545Z,15.30
2023-04-01T07:56:30.261Z,15.30
2023-04-01T07:57:39.976Z,15.40
2023-04-01T07:58:57.600Z,15.50
2023-04-01T08:00:09.487Z,15.60
2023-04-01T08:01:26.415Z,15.70
2023-04-01T08:02:50.159Z,15.70
2023-04-01T08:04:17.033Z,15.80
2023-04-01T08:05:30.426Z,15.80
2023-04-01T08:06:52.525Z,15.90
2023-04-01T08:08:07.294Z,15.90
2023-04-01T08:09:27.528Z,15.90
2023-04-01T08:10:43.121Z,15.80
2023-04-01T08:12:05.087Z,15.80
2023-04-01T08:14:23.471Z,15.80
2023-04-01T08:16:09.945Z,15.80
2023-04-01T08:17:24.736Z,15.80
2023-04-01T08:18:44.455Z,15.80
2023-04-01T08:20:04.192Z,15.80
2023-04-01T08:21:17.949Z,15.80
2023-04-01T08:22:28.092Z,15.80
2023-04-01T08:23:35.889Z,15.70
2023-04-01T08:24:48.099Z,15.80
2023-04-01T08:25:58.679Z,15.80
2023-04-01T08:27:07.141Z,15.90
2023-04-01T08:28:19.683Z,16.00
2023-04-01T08:29:27.247Z,16.00
2023-04-01T08:30:41.100Z,16.00
2023-04-01T08:31:53.551Z,15.90
2023-04-01T08:33:01.150Z,15.90
2023-04-01T08:34:12.606Z,15.80
2023-04-01T08:35:22.712Z,15.80
2023-04-01T08:36:34.850Z,15.80
2023-04-01T08:37:42.336Z,15.80
2023-04-01T08:38:51.531Z,15.80
2023-04-01T08:39:59.898Z,15.90
2023-04-01T08:41:29.615Z,15.80
2023-04-01T08:43:00.274Z,15.80
2023-04-01T08:44:34.806Z,15.80
2023-04-01T08:45:58.644Z,15.80
2023-04-01T08:47:32.517Z,15.80
2023-04-01T08:48:50.877Z,15.80
2023-04-01T08:50:35.805Z,15.70
2023-04-01T08:52:21.234Z,15.80
2023-04-01T08:53:40.174Z,15.80
2023-04-01T08:55:16.896Z,15.80
2023-04-01T08:56:24.686Z,15.80
2023-04-01T08:57:48.338Z,15.80
2023-04-01T08:59:29.614Z,15.80
2023-04-01T09:00:39.909Z,15.90
2023-04-01T09:02:02.605Z,15.90
2023-04-01T09:03:36.652Z,15.90
2023-04-01T09:05:18.490Z,15.90
2023-04-01T09:06:40.586Z,16.00
2023-04-01T09:07:54.449Z,16.00
2023-04-01T09:09:31.059Z,16.00
2023-04-01T09:10:58.653Z,16.00
2023-04-01T09:12:30.646Z,16.00
2023-04-01T09:14:03.028Z,16.10
2023-04-01T09:15:44.707Z,16.10
2023-04-01T09:17:32.434Z,16.00
2023-04-01T09:19:00.620Z,16.00
2023-04-01T09:20:29.553Z,16.00
2023-04-01T09:22:00.427Z,16.00
2023-04-01T09:23:31.640Z,16.00
2023-04-01T09:24:54.336Z,16.00
2023-04-01T09:26:14.682Z,16.00
2023-04-01T09:27:29.501Z,16.00
2023-04-01T09:28:50.651Z,16.00
2023-04-01T09:30:33.112Z,16.00
2023-04-01T09:32:03.764Z,16.00
2023-04-01T09:33:53.457Z,16.10
2023-04-01T09:34:59.362Z,16.20
2023-04-01T09:36:09.179Z,16.20
2023-04-01T09:37:29.642Z,16.30
2023-04-01T09:38:52.424Z,16.30
2023-04-01T09:40:19.812Z,16.20
2023-04-01T09:41:32.700Z,16.10
2023-04-01T09:42:45.393Z,16.20
2023-04-01T09:44:03.991Z,16.20
2023-04-01T09:45:18.252Z,16.20
2023-04-01T09:46:36.473Z,16.10
2023-04-01T09:48:04.734Z,16.20
2023-04-01T09:49:39.136Z,16.20
2023-04-01T09:50:55.187Z,16.30
2023-04-01T09:52:22.877Z,16.30
2023-04-01T09:53:49.155Z,16.30
2023-04-01T09:55:15.587Z,16.30
2023-04-01T09:56:53.824Z,16.40
2023-04-01T09:58:30.215Z,16.30
2023-04-01T10:00:06.115Z,16.30
2023-04-01T10:01:48.068Z,16.20
2023-04-01T10:03:28.368Z,16.20
2023-04-01T10:05:18.861Z,16.30
2023-04-01T10:07:02.061Z,16.30
2023-04-01T10:08:33.588Z,16.30
2023-04-01T10:10:13.040Z,16.30
2023-04-01T10:12:12.579Z,16.40
2023-04-01T10:14:02.950Z,16.50
2023-04-01T10:15:43.346Z,16.60
2023-04-01T10:17:24.379Z,16.70
2023-04-01T10:19:02.413Z,16.80
2023-04-01T10:20:30.054Z,17.00
2023-04-01T10:22:02.137Z,17.30
2023-04-01T10:23:28.004Z,17.50
2023-04-01T10:25:13.024Z,17.70
2023-04-01T10:26:59.414Z,17.80
2023-04-01T10:28:43.178Z,17.80
2023-04-01T10:30:16.304Z,17.80
2023-04-01T10:32:07.437Z,17.90
2023-04-01T10:34:00.164Z,18.00
2023-04-01T10:35:30.458Z,18.00
2023-04-01T10:36:55.439Z,18.10
2023-04-01T10:38:37.368Z,18.20
2023-04-01T10:40:23.504Z,18.20
2023-04-01T10:42:00.998Z,18.30
2023-04-01T10:43:52.448Z,18.40
2023-04-01T10:45:30.064Z,18.40
2023-04-01T10:47:29.140Z,18.30
2023-04-01T10:48:57.793Z,18.30
2023-04-01T10:50:24.426Z,18.40
2023-04-01T10:52:06.724Z,18.40
2023-04-01T10:53:35.988Z,18.40
2023-04-01T10:54:49.607Z,18.40
2023-04-01T10:56:31.796Z,18.40
2023-04-01T10:58:07.007Z,18.30
2023-04-01T10:59:57.908Z,18.30
2023-04-01T11:01:38.600Z,18.30
2023-04-01T11:03:12.662Z,18.30
2023-04-01T11:04:58.125Z,18.30
2023-04-01T11:06:43.102Z,18.30
2023-04-01T11:08:36.584Z,18.40
2023-04-01T11:10:11.913Z,18.50
2023-04-01T11:11:47.102Z,18.60
2023-04-01T11:13:34.880Z,18.50
2023-04-01T11:15:10.501Z,18.60
2023-04-01T11:16:51.155Z,18.60
2023-04-01T11:18:32.321Z,18.50
2023-04-01T11:20:14.074Z,18.40
2023-04-01T11:21:58.921Z,18.40
2023-04-01T11:23:37.414Z,18.40
2023-04-01T11:25:04.081Z,18.30
2023-04-01T11:26:30.540Z,18.30
2023-04-01T11:27:54.492Z,18.20
2023-04-01T11:29:25.764Z,18.20
2023-04-01T11:30:55.427Z,18.10
2023-04-01T11:32:13.460Z,18.10
2023-04-01T11:33:27.109Z,18.10
2023-04-01T11:34:53.023Z,18.10
2023-04-01T11:36:20.166Z,18.00
2023-04-01T11:37:40.100Z,17.90
2023-04-01T11:39:21.709Z,17.80
2023-04-01T11:40:37.510Z,17.70
2023-04-01T11:41:52.247Z,17.60
2023-04-01T11:43:06.574Z,17.60
2023-04-01T11:44:19.277Z,17.50
2023-04-01T11:45:37.191Z,17.50
2023-04-01T11:46:56.311Z,17.50
2023-04-01T11:48:33.504Z,17.40
2023-04-01T11:49:59.317Z,17.40
2023-04-01T11:51:23.808Z,17.40
2023-04-01T11:52:46.249Z,17.30
2023-04-01T11:54:02.517Z,17.30
2023-04-01T11:55:34.265Z,17.30
2023-04-01T11:56:58.925Z,17.30
2023-04-01T11:58:33.531Z,17.20
2023-04-01T12:00:03.286Z,17.20
2023-04-01T12:01:38.764Z,17.10
2023-04-01T12:02:55.161Z,17.00
2023-04-01T12:04:37.869Z,16.90
2023-04-01T12:05:46.932Z,16.90
2023-04-01T12:07:01.872Z,16.90
2023-04-01T12:08:33.447Z,16.90
2023-04-01T12:09:47.566Z,16.80
2023-04-01T12:11:02.270Z,16.80
2023-04-01T12:12:19.241Z,16.80
2023-04-01T12:13:37.699Z,16.80
2023-04-01T12:14:51.764Z,16.80
2023-04-01T12:16:27.713Z,16.80
2023-04-01T12:17:40.724Z,16.70
2023-04-01T12:18:53.121Z,16.70
2023-04-01T12:20:14.016Z,16.70
2023-04-01T12:21:35.196Z,16.70
2023-04-01T12:23:36.686Z,16.70
2023-04-01T12:24:48.394Z,16.70
2023-04-01T12:26:28.808Z,16.60
2023-04-01T12:27:48.176Z,16.60
2023-04-01T12:29:17.760Z,16.60
2023-04-01T12:30:37.259Z,16.60
2023-04-01T12:31:50.188Z,16.60
2023-04-01T12:33:06.986Z,16.60
2023-04-01T12:34:41.897Z,16.60
2023-04-01T12:35:58.724Z,16.60
2023-04-01T12:37:14.056Z,16.60
2023-04-01T12:38:32.498Z,16.60
2023-04-01T12:39:53.820Z,16.60
2023-04-01T12:41:20.792Z,16.60
2023-04-01T12:42:46.678Z,16.70
2023-04-01T12:44:29.821Z,16.70
2023-04-01T12:45:34.353Z,16.70
2023-04-01T12:47:06.208Z,16.80
2023-04-01T12:48:36.002Z,16.80
2023-04-01T12:50:14.023Z,16.90
2023-04-01T12:51:37.902Z,16.90
2023-04-01T12:52:56.520Z,17.00
2023-04-01T12:54:26.251Z,16.90
2023-04-01T12:55:41.889Z,17.00
2023-04-01T12:57:01.218Z,17.00
2023-04-01T12:58:46.505Z,17.00
2023-04-01T13:00:14.773Z,17.00
2023-04-01T13:01:50.840Z,16.90
2023-04-01T13:03:15.703Z,16.90
2023-04-01T13:04:58.782Z,16.90
2023-04-01T13:06:27.597Z,16.90
2023-04-01T13:07:54.101Z,16.90
2023-04-01T13:09:17.810Z,17.00
2023-04-01T13:10:40.878Z,16.90
2023-04-01T13:12:00.377Z,17.00
2023-04-01T13:13:28.501Z,17.00
2023-04-01T13:14:51.955Z,17.00
2023-04-01T13:16:04.085Z,17.00
2023-04-01T13:17:20.015Z,17.00
2023-04-01T13:18:39.776Z,17.00
2023-04-01T13:20:04.156Z,17.00
2023-04-01T13:21:17.116Z,17.10
2023-04-01T13:22:29.467Z,17.10
2023-04-01T13:23:47.382Z,17.10
2023-04-01T13:25:04.023Z,17.10
2023-04-01T13:26:19.463Z,17.10
2023-04-01T13:27:30.680Z,17.00
2023-04-01T13:28:41.536Z,17.00
2023-04-01T13:29:53.478Z,17.00
2023-04-01T13:31:10.436Z,17.00
2023-04-01T13:32:40.825Z,17.00
2023-04-01T13:34:01.135Z,17.00
2023-04-01T13:35:31.602Z,17.00
2023-04-01T13:36:50.642Z,17.00
2023-04-01T13:38:10.392Z,17.00
2023-04-01T13:39:29.278Z,17.00
2023-04-01T13:40:55.732Z,16.90
2023-04-01T13:42:19.827Z,16.90
2023-04-01T13:43:27.998Z,16.90
2023-04-01T13:44:38.340Z,16.90
2023-04-01T13:46:04.407Z,16.90
2023-04-01T13:47:46.453Z,16.90
2023-04-01T13:49:26.587Z,17.00
2023-04-01T13:50:44.401Z,17.00
2023-04-01T13:52:26.232Z,17.00
2023-04-01T13:54:07.595Z,17.00
2023-04-01T13:55:41.777Z,17.10
2023-04-01T13:56:59.331Z,17.10
2023-04-01T13:58:32.364Z,17.10
2023-04-01T14:00:09.705Z,17.10
2023-04-01T14:01:22.239Z,17.10
2023-04-01T14:03:02.713Z,17.00
2023-04-01T14:04:32.395Z,16.90
2023-04-01T14:05:55.022Z,16.80
2023-04-01T14:07:18.470Z,16.70
2023-04-01T14:08:36.351Z,16.70
2023-04-01T14:10:07.737Z,16.70
2023-04-01T14:11:21.761Z,16.70
2023-04-01T14:12:32.655Z,16.70
2023-04-01T14:13:50.256Z,16.70
2023-04-01T14:15:11.028Z,16.80
2023-04-01T14:16:35.675Z,16.70
2023-04-01T14:17:58.524Z,16.80
2023-04-01T14:19:26.364Z,16.80
2023-04-01T14:20:41.463Z,16.90
2023-04-01T14:21:55.901Z,16.90
2023-04-01T14:23:18.936Z,16.90
2023-04-01T14:25:05.416Z,17.00
2023-04-01T14:26:37.615Z,16.90
2023-04-01T14:27:57.093Z,17.00
2023-04-01T14:29:15.068Z,17.00
2023-04-01T14:30:48.704Z,17.10
2023-04-01T14:32:12.381Z,17.20
2023-04-01T14:33:32.409Z,17.20
2023-04-01T14:34:51.747Z,17.20
2023-04-01T14:36:11.116Z,17.20
2023-04-01T14:37:57.854Z,17.20
2023-04-01T14:39:21.142Z,17.20
2023-04-01T14:40:35.956Z,17.20
2023-04-01T14:41:52.576Z,17.20
2023-04-01T14:43:30.776Z,17.20
2023-04-01T14:44:58.398Z,17.20
2023-04-01T14:46:19.425Z,17.20
2023-04-01T14:47:50.722Z,17.20
2023-04-01T14:48:59.206Z,17.20
2023-04-01T14:50:11.824Z,17.20
2023-04-01T14:51:22.864Z,17.20
2023-04-01T14:52:30.927Z,17.30
2023-04-01T14:53:41.596Z,17.30
2023-04-01T14:54:48.354Z,17.30
2023-04-01T14:55:56.517Z,17.30
2023-04-01T14:57:13.131Z,17.30
2023-04-01T14:58:17.388Z,17.30
2023-04-01T14:59:30.941Z,17.30
2023-04-01T15:00:55.611Z,17.30
2023-04-01T15:02:05.535Z,17.30
2023-04-01T15:03:21.620Z,17.30
2023-04-01T15:04:51.368Z,17.30
2023-04-01T15:06:09.178Z,17.40
2023-04-01T15:07:36.936Z,17.40
2023-04-01T15:08:55.091Z,17.40
2023-04-01T15:10:10.674Z,17.40
2023-04-01T15:11:37.754Z,17.40
2023-04-01T15:12:51.752Z,17.40
2023-04-01T15:14:22.293Z,17.40
2023-04-01T15:15:42.085Z,17.30
2023-04-01T15:16:56.961Z,17.30
2023-04-01T15:18:15.314Z,17.30
2023-04-01T15:19:32.572Z,17.30
2023-04-01T15:21:09.257Z,17.30
2023-04-01T15:22:40.676Z,17.30
2023-04-01T15:23:57.317Z,17.20
2023-04-01T15:25:19.055Z,17.30
2023-04-01T15:26:32.485Z,17.20
2023-04-01T15:27:46.291Z,17.30
2023-04-01T15:29:08.567Z,17.20
2023-04-01T15:30:32.152Z,17.20
2023-04-01T15:31:44.674Z,17.30
2023-04-01T15:33:19.730Z,17.30
2023-04-01T15:34:34.615Z,17.20
2023-04-01T15:35:48.886Z,17.20
2023-04-01T15:36:59.381Z,17.20
2023-04-01T15:38:12.928Z,17.20
2023-04-01T15:39:21.391Z,17.20
2023-04-01T15:40:30.563Z,17.20
2023-04-01T15:41:44.296Z,17.10
2023-04-01T15:43:05.348Z,17.10
2023-04-01T15:44:50.449Z,17.10
2023-04-01T15:46:10.920Z,17.10
2023-04-01T15:47:40.730Z,17.10
2023-04-01T15:49:07.831Z,17.10
2023-04-01T15:50:40.724Z,17.00
2023-04-01T15:52:07.881Z,16.90
2023-04-01T15:53:38.446Z,16.90
2023-04-01T15:55:14.135Z,16.90
2023-04-01T15:56:32.484Z,16.90
2023-04-01T15:57:47.557Z,16.90
2023-04-01T15:59:03.348Z,16.90
2023-04-01T16:00:24.592Z,16.90
2023-04-01T16:01:41.077Z,16.90
2023-04-01T16:02:50.604Z,16.90
2023-04-01T16:04:14.629Z,16.90
2023-04-01T16:05:36.051Z,16.90
2023-04-01T16:07:09.906Z,16.90
2023-04-01T16:08:27.897Z,16.90
2023-04-01T16:09:52.628Z,16.90
2023-04-01T16:11:10.921Z,16.90
2023-04-01T16:12:20.935Z,16.90